createdAt,value
2022-11-27T00:02:10.738Z,7.50
2022-11-27T00:06:17.896Z,9.13
2022-11-27T00:10:21.200Z,12.93
2022-11-27T00:14:24.401Z,6.07
2022-11-27T00:18:27.881Z,7.17
2022-11-27T00:22:32.515Z,10.00
2022-11-27T00:26:38.091Z,6.93
2022-11-27T00:30:41.844Z,6.93
2022-11-27T00:34:45.185Z,6.83
2022-11-27T00:38:49.934Z,6.00
2022-11-27T00:42:53.328Z,9.03
2022-11-27T00:46:56.802Z,5.90
2022-11-27T00:51:01.408Z,7.57
2022-11-27T00:55:06.807Z,7.70
2022-11-27T00:59:11.929Z,5.60
2022-11-27T01:03:15.359Z,13.23
2022-11-27T01:07:19.282Z,7.00
2022-11-27T01:11:27.131Z,11.70
2022-11-27T01:15:30.311Z,7.10
2022-11-27T01:19:33.601Z,7.17
2022-11-27T01:23:36.883Z,6.97
2022-11-27T01:27:41.852Z,5.27
2022-11-27T01:31:45.187Z,5.93
2022-11-27T01:35:55.620Z,6.43
2022-11-27T01:39:58.852Z,11.37
2022-11-27T01:44:05.713Z,6.80
2022-11-27T01:48:12.909Z,5.90
2022-11-27T01:52:21.786Z,5.57
2022-11-27T01:56:26.481Z,8.30
2022-11-27T02:00:31.787Z,7.23
2022-11-27T02:04:35.012Z,6.17
2022-11-27T02:08:39.746Z,5.87
2022-11-27T02:12:56.305Z,5.47
2022-11-27T02:17:07.703Z,7.70
2022-11-27T02:21:18.288Z,6.10
2022-11-27T02:25:32.041Z,8.23
2022-11-27T02:29:37.944Z,4.90
2022-11-27T02:33:53.365Z,6.30
2022-11-27T02:38:01.188Z,5.40
2022-11-27T02:42:16.643Z,7.33
2022-11-27T02:46:21.971Z,7.33
2022-11-27T02:50:27.563Z,8.40
2022-11-27T02:54:32.204Z,7.60
2022-11-27T02:58:38.463Z,6.60
2022-11-27T03:02:47.935Z,5.60
2022-11-27T03:06:56.341Z,7.10
2022-11-27T03:11:04.287Z,7.20
2022-11-27T03:15:08.649Z,6.70
2022-11-27T03:19:21.016Z,5.23
2022-11-27T03:23:24.300Z,6.30
2022-11-27T03:27:31.870Z,8.47
2022-11-27T03:31:35.323Z,5.03
2022-11-27T03:35:40.256Z,5.73
2022-11-27T03:39:43.972Z,5.23
2022-11-27T03:43:57.922Z,4.80
2022-11-27T03:48:10.859Z,6.10
2022-11-27T03:52:21.882Z,5.97
2022-11-27T03:56:35.289Z,3.80
2022-11-27T04:00:43.396Z,5.57
2022-11-27T04:04:46.976Z,9.67
2022-11-27T04:08:51.604Z,4.87
2022-11-27T04:12:54.839Z,6.20
2022-11-27T04:16:58.093Z,6.93
2022-11-27T04:21:01.660Z,4.23
2022-11-27T04:25:07.198Z,5.10
2022-11-27T04:29:10.430Z,5.40
2022-11-27T04:33:13.861Z,4.97
2022-11-27T04:37:17.142Z,4.87
2022-11-27T04:41:21.892Z,3.77
2022-11-27T04:45:25.130Z,6.50
2022-11-27T04:49:28.512Z,4.77
2022-11-27T04:53:31.794Z,5.37
2022-11-27T04:57:36.768Z,4.67
2022-11-27T05:01:39.984Z,4.07
2022-11-27T05:05:43.373Z,2.30
2022-11-27T05:09:46.603Z,6.20
2022-11-27T05:14:11.359Z,6.33
2022-11-27T05:18:14.577Z,3.90
2022-11-27T05:22:19.091Z,4.20
2022-11-27T05:26:22.545Z,4.30
2022-11-27T05:30:27.342Z,5.77
2022-11-27T05:34:33.269Z,4.10
2022-11-27T05:38:36.644Z,5.93
2022-11-27T05:42:39.860Z,4.83
2022-11-27T05:46:44.881Z,6.70
2022-11-27T05:50:48.195Z,4.07
2022-11-27T05:54:51.495Z,4.03
2022-11-27T05:58:54.909Z,5.70
2022-11-27T06:02:59.771Z,7.53
2022-11-27T06:07:03.495Z,6.97
2022-11-27T06:11:09.536Z,4.30
2022-11-27T06:15:13.059Z,4.57
2022-11-27T06:19:18.870Z,6.53
2022-11-27T06:23:22.568Z,6.07
2022-11-27T06:27:25.850Z,4.50
2022-11-27T06:31:32.424Z,6.50
2022-11-27T06:35:37.178Z,4.00
2022-11-27T06:39:40.473Z,4.47
2022-11-27T06:43:44.230Z,6.00
2022-11-27T06:47:47.527Z,5.93
2022-11-27T06:51:52.419Z,6.00
2022-11-27T06:55:55.907Z,4.70
2022-11-27T06:59:59.573Z,3.57
2022-11-27T07:04:02.993Z,5.40
2022-11-27T07:08:08.179Z,8.07
2022-11-27T07:12:11.616Z,7.60
2022-11-27T07:16:16.587Z,8.67
2022-11-27T07:20:20.015Z,7.07
2022-11-27T07:24:25.111Z,9.20
2022-11-27T07:28:28.329Z,6.60
2022-11-27T07:32:32.334Z,4.13
2022-11-27T07:36:35.639Z,5.60
2022-11-27T07:40:41.041Z,5.33
2022-11-27T07:44:55.421Z,7.93
2022-11-27T07:49:03.595Z,7.00
2022-11-27T07:53:06.850Z,4.23
2022-11-27T07:57:25.816Z,7.87
2022-11-27T08:01:33.498Z,6.03
2022-11-27T08:05:38.088Z,6.60
2022-11-27T08:09:41.425Z,13.03
2022-11-27T08:13:46.173Z,6.27
2022-11-27T08:17:56.947Z,8.53
2022-11-27T08:22:00.364Z,6.70
2022-11-27T08:31:20.908Z,7.97
2022-11-27T08:40:26.725Z,7.63
2022-11-27T08:44:30.699Z,10.60
2022-11-27T08:48:47.243Z,12.30
2022-11-27T08:52:51.148Z,13.03
2022-11-27T08:56:54.886Z,12.33
2022-11-27T09:00:59.437Z,9.57
2022-11-27T09:05:06.819Z,9.23
2022-11-27T09:09:11.174Z,7.07
2022-11-27T09:13:15.221Z,11.33
2022-11-27T09:17:18.726Z,11.93
2022-11-27T09:21:27.248Z,10.00
2022-11-27T09:25:30.575Z,12.57
2022-11-27T09:29:38.040Z,15.60
2022-11-27T09:33:42.810Z,12.57
2022-11-27T09:37:47.550Z,14.53
2022-11-27T09:41:54.595Z,15.70
2022-11-27T09:46:04.204Z,17.10
2022-11-27T09:50:16.409Z,12.67
2022-11-27T09:54:27.376Z,15.60
2022-11-27T09:58:39.027Z,15.10
2022-11-27T10:02:43.299Z,15.30
2022-11-27T10:07:03.169Z,15.63
2022-11-27T10:11:18.308Z,20.47
2022-11-27T10:15:42.309Z,10.73
2022-11-27T10:19:53.432Z,7.37
2022-11-27T10:24:04.000Z,6.07
2022-11-27T10:28:21.505Z,7.67
2022-11-27T10:32:54.039Z,2.77
2022-11-27T10:36:53.179Z,2.43
2022-11-27T10:41:28.453Z,5.43
2022-11-27T10:45:44.408Z,4.63
2022-11-27T10:50:26.133Z,4.60
2022-11-27T10:54:35.055Z,4.83
2022-11-27T10:58:44.192Z,4.37
2022-11-27T11:02:49.209Z,3.77
2022-11-27T11:06:52.830Z,4.53
2022-11-27T11:11:00.881Z,6.50
2022-11-27T11:15:13.180Z,5.10
2022-11-27T11:19:57.358Z,5.50
2022-11-27T11:24:02.897Z,5.70
2022-11-27T11:28:18.232Z,6.07
2022-11-27T11:32:26.955Z,7.70
2022-11-27T11:36:42.812Z,4.00
2022-11-27T11:41:00.703Z,3.93
2022-11-27T11:45:06.815Z,5.00
2022-11-27T11:49:19.578Z,4.97
2022-11-27T11:53:33.337Z,3.93
2022-11-27T11:57:57.784Z,4.17
2022-11-27T12:02:26.618Z,6.30
2022-11-27T12:06:39.280Z,3.80
2022-11-27T12:10:54.939Z,4.50
2022-11-27T12:15:05.014Z,4.37
2022-11-27T12:19:35.023Z,3.97
2022-11-27T12:24:03.231Z,4.27
2022-11-27T12:28:20.613Z,4.17
2022-11-27T12:32:45.611Z,4.17
2022-11-27T12:37:13.617Z,4.07
2022-11-27T12:41:32.807Z,6.20
2022-11-27T12:45:43.750Z,5.40
2022-11-27T12:49:50.464Z,3.87
2022-11-27T12:54:00.362Z,3.33
2022-11-27T12:58:07.364Z,4.60
2022-11-27T13:02:24.989Z,3.97
2022-11-27T13:06:32.341Z,3.90
2022-11-27T13:10:40.990Z,5.60
2022-11-27T13:14:51.201Z,4.63
2022-11-27T13:19:02.878Z,5.70
2022-11-27T13:23:06.363Z,3.70
2022-11-27T13:27:15.772Z,3.40
2022-11-27T13:31:22.596Z,5.73
2022-11-27T13:35:31.923Z,3.27
2022-11-27T13:39:38.046Z,3.40
2022-11-27T13:43:45.090Z,4.90
2022-11-27T13:47:50.788Z,4.53
2022-11-27T13:52:06.942Z,4.97
2022-11-27T13:56:11.195Z,4.30
2022-11-27T14:00:16.861Z,7.10
2022-11-27T14:04:20.201Z,4.57
2022-11-27T14:08:28.056Z,4.60
2022-11-27T14:12:34.074Z,4.03
2022-11-27T14:16:39.758Z,5.30
2022-11-27T14:20:52.467Z,7.07
2022-11-27T14:24:58.290Z,6.60
2022-11-27T14:29:02.250Z,24.77
2022-11-27T14:33:06.199Z,4.43
2022-11-27T14:37:24.854Z,7.30
2022-11-27T14:41:31.244Z,4.40
2022-11-27T14:45:36.400Z,5.73
2022-11-27T14:49:42.191Z,5.90
2022-11-27T14:53:48.014Z,8.33
2022-11-27T14:57:54.076Z,6.27
2022-11-27T15:02:03.176Z,4.37
2022-11-27T15:06:09.327Z,3.50
2022-11-27T15:10:26.421Z,7.23
2022-11-27T15:14:33.276Z,11.33
2022-11-27T15:18:41.789Z,7.53
2022-11-27T15:22:50.787Z,9.07
2022-11-27T15:26:55.708Z,9.67
2022-11-27T15:31:01.837Z,6.00
2022-11-27T15:35:16.755Z,7.80
2022-11-27T15:39:24.222Z,6.13
2022-11-27T15:43:28.578Z,6.60
2022-11-27T15:47:37.651Z,6.60
2022-11-27T15:51:41.172Z,6.33
2022-11-27T15:55:44.937Z,9.37
2022-11-27T15:59:49.860Z,8.37
2022-11-27T16:03:55.003Z,5.43
2022-11-27T16:07:59.930Z,5.47
2022-11-27T16:12:07.532Z,7.90
2022-11-27T16:16:11.893Z,9.13
2022-11-27T16:20:18.274Z,7.77
2022-11-27T16:24:22.694Z,6.20
2022-11-27T16:28:27.888Z,9.80
2022-11-27T16:32:33.550Z,6.53
2022-11-27T16:36:41.927Z,8.37
2022-11-27T16:40:47.227Z,10.60
2022-11-27T16:44:51.732Z,9.77
2022-11-27T16:48:59.051Z,6.50
2022-11-27T16:53:08.046Z,10.20
2022-11-27T16:57:14.414Z,8.03
2022-11-27T17:01:20.722Z,11.00
2022-11-27T17:05:25.164Z,12.63
2022-11-27T17:09:32.971Z,8.40
2022-11-27T17:13:37.759Z,9.70
2022-11-27T17:17:42.981Z,16.00
2022-11-27T17:21:47.916Z,13.70
2022-11-27T17:25:54.266Z,9.37
2022-11-27T17:29:58.783Z,11.00
2022-11-27T17:34:05.623Z,9.93
2022-11-27T17:38:09.344Z,10.20
2022-11-27T17:42:21.060Z,8.97
2022-11-27T17:46:28.287Z,8.17
2022-11-27T17:50:33.728Z,12.07
2022-11-27T17:54:38.892Z,7.30
2022-11-27T17:58:45.419Z,13.43
2022-11-27T18:02:50.317Z,14.37
2022-11-27T18:06:55.019Z,12.60
2022-11-27T18:10:59.868Z,13.50
2022-11-27T18:15:06.793Z,10.73
2022-11-27T18:19:13.891Z,14.40
2022-11-27T18:23:21.984Z,11.00
2022-11-27T18:27:27.082Z,14.63
2022-11-27T18:31:36.353Z,8.03
2022-11-27T18:35:44.895Z,10.73
2022-11-27T18:39:52.638Z,11.43
2022-11-27T18:43:57.246Z,10.70
2022-11-27T18:48:03.372Z,11.50
2022-11-27T18:52:10.697Z,13.40
2022-11-27T18:56:17.824Z,14.67
2022-11-27T19:00:23.542Z,15.20
2022-11-27T19:04:30.755Z,18.13
2022-11-27T19:08:36.656Z,17.07
2022-11-27T19:12:42.104Z,18.73
2022-11-27T19:16:54.479Z,18.33
2022-11-27T19:21:11.828Z,16.67
2022-11-27T19:25:19.363Z,23.63
2022-11-27T19:29:32.436Z,26.33
2022-11-27T19:33:41.127Z,28.80
2022-11-27T19:37:51.319Z,26.30
2022-11-27T19:41:58.553Z,21.87
2022-11-27T19:46:05.065Z,22.97
2022-11-27T19:50:13.386Z,23.13
2022-11-27T19:54:26.299Z,20.90
2022-11-27T19:58:32.432Z,16.17
2022-11-27T20:02:41.617Z,13.90
2022-11-27T20:06:47.551Z,17.53
2022-11-27T20:10:59.297Z,13.40
2022-11-27T20:15:06.550Z,15.40
2022-11-27T20:19:16.789Z,19.90
2022-11-27T20:23:25.769Z,14.90
2022-11-27T20:27:32.130Z,16.07
2022-11-27T20:31:39.654Z,18.07
2022-11-27T20:35:44.514Z,15.47
2022-11-27T20:39:49.400Z,14.57
2022-11-27T20:43:59.582Z,19.60
2022-11-27T20:48:05.036Z,18.60
2022-11-27T20:52:12.085Z,16.30
2022-11-27T20:56:18.241Z,14.93
2022-11-27T21:00:26.318Z,18.30
2022-11-27T21:04:30.353Z,16.43
2022-11-27T21:08:34.383Z,20.77
2022-11-27T21:12:38.760Z,21.50
2022-11-27T21:16:47.618Z,26.93
2022-11-27T21:20:51.780Z,26.13
2022-11-27T21:24:57.450Z,26.47
2022-11-27T21:29:01.258Z,19.33
2022-11-27T21:33:06.034Z,20.13
2022-11-27T21:37:09.405Z,19.57
2022-11-27T21:41:14.112Z,18.83
2022-11-27T21:45:17.616Z,19.97
2022-11-27T21:49:22.663Z,18.50
2022-11-27T21:53:26.279Z,20.83
2022-11-27T21:57:29.489Z,19.87
2022-11-27T22:01:32.962Z,18.93
2022-11-27T22:05:37.625Z,21.03
2022-11-27T22:09:41.051Z,18.50
2022-11-27T22:13:44.385Z,21.97
2022-11-27T22:17:48.654Z,21.77
2022-11-27T22:21:53.265Z,22.10
2022-11-27T22:25:56.748Z,20.07
2022-11-27T22:30:00.039Z,24.33
2022-11-27T22:34:03.506Z,21.37
2022-11-27T22:38:08.112Z,20.70
2022-11-27T22:42:12.199Z,21.50
2022-11-27T22:46:18.193Z,17.30
2022-11-27T22:50:21.584Z,18.60
2022-11-27T22:54:26.289Z,22.80
2022-11-27T22:58:29.661Z,25.33
2022-11-27T23:02:33.031Z,16.60
2022-11-27T23:06:37.121Z,22.27
2022-11-27T23:10:41.873Z,24.30
2022-11-27T23:14:45.181Z,20.60
2022-11-27T23:18:50.944Z,20.20
2022-11-27T23:22:54.153Z,22.37
2022-11-27T23:26:58.877Z,17.63
2022-11-27T23:31:28.524Z,19.33
2022-11-27T23:35:29.414Z,18.23
2022-11-27T23:39:32.670Z,18.73
2022-11-27T23:43:37.443Z,18.03
2022-11-27T23:47:40.852Z,19.00
2022-11-27T23:51:44.401Z,18.90
2022-11-27T23:55:47.792Z,18.40
2022-11-27T23:59:52.586Z,17.47
